Time;durP1;ratioP1;P1;durP2;ratioP2;P2;SDS_P1;SDS_P2;PMS_P1;PMS_P2;Temp;Humidity;BMP_temperature;BMP_pressure;BME280_temperature;BME280_humidity;BME280_pressure;Samples;Min_cycle;Max_cycle;Signal;HPM_P1;HPM_P2
2021/04/08 00:02:05;;;;;;;10.68;4.40;;;;;;;;;;5054565;28;20024;-70
2021/04/08 00:04:32;;;;;;;7.60;4.18;;;;;;;;;;5054187;28;20029;-70
2021/04/08 00:06:58;;;;;;;8.23;4.15;;;;;;;;;;5054354;28;20067;-70
2021/04/08 00:09:24;;;;;;;10.30;3.97;;;;;;;;;;5052747;28;20474;-69
2021/04/08 00:11:51;;;;;;;11.77;5.20;;;;;;;;;;5054691;28;20016;-70
2021/04/08 00:14:17;;;;;;;8.32;4.95;;;;;;;;;;5054205;28;20412;-70
2021/04/08 00:16:43;;;;;;;10.43;5.00;;;;;;;;;;5054301;28;20047;-70
2021/04/08 00:19:11;;;;;;;8.23;4.75;;;;;;;;;;5054366;28;20021;-70
2021/04/08 00:21:37;;;;;;;8.32;4.22;;;;;;;;;;5054576;28;20096;-70
2021/04/08 00:24:03;;;;;;;6.78;4.13;;;;;;;;;;5053721;28;20071;-69
2021/04/08 00:26:30;;;;;;;8.95;4.88;;;;;;;;;;5054143;28;20017;-70
2021/04/08 00:28:56;;;;;;;9.07;5.45;;;;;;;;;;5054277;28;20053;-70
2021/04/08 00:31:22;;;;;;;8.80;3.78;;;;;;;;;;5053898;28;20033;-70
2021/04/08 00:33:48;;;;;;;8.70;4.45;;;;;;;;;;5054308;28;20040;-70
2021/04/08 00:36:14;;;;;;;8.40;4.28;;;;;;;;;;5054147;28;20382;-71
2021/04/08 00:38:41;;;;;;;12.88;4.70;;;;;;;;;;5053416;28;20021;-70
2021/04/08 00:41:07;;;;;;;10.05;5.80;;;;;;;;;;5053919;28;20440;-70
2021/04/08 00:43:33;;;;;;;9.98;5.20;;;;;;;;;;5052329;28;20096;-69
2021/04/08 00:45:59;;;;;;;9.38;5.05;;;;;;;;;;5052003;28;20488;-69
2021/04/08 00:48:25;;;;;;;8.65;4.28;;;;;;;;;;5053595;28;20025;-69
2021/04/08 00:50:52;;;;;;;10.15;5.15;;;;;;;;;;5053783;28;20087;-72
2021/04/08 00:53:26;;;;;;;8.50;4.70;;;;;;;;;;5053299;28;20028;-70
2021/04/08 00:55:53;;;;;;;8.07;4.47;;;;;;;;;;5053786;28;20032;-70
2021/04/08 00:58:20;;;;;;;8.48;3.90;;;;;;;;;;5052642;28;20021;-70
2021/04/08 01:00:47;;;;;;;10.25;5.00;;;;;;;;;;5053004;28;20059;-70
2021/04/08 01:03:14;;;;;;;12.57;5.32;;;;;;;;;;5053305;28;20053;-70
2021/04/08 01:05:40;;;;;;;16.25;6.63;;;;;;;;;;5051730;28;20477;-70
2021/04/08 01:08:07;;;;;;;11.63;5.03;;;;;;;;;;5053652;28;20032;-69
2021/04/08 01:10:33;;;;;;;9.55;5.00;;;;;;;;;;5053254;28;20025;-70
2021/04/08 01:13:02;;;;;;;9.25;4.93;;;;;;;;;;5051287;28;20055;-69
2021/04/08 01:15:29;;;;;;;11.10;5.10;;;;;;;;;;5053277;28;20028;-69
2021/04/08 01:18:14;;;;;;;7.97;4.50;;;;;;;;;;5053406;28;20021;-70
2021/04/08 01:20:40;;;;;;;12.88;4.97;;;;;;;;;;5052680;28;20055;-69
2021/04/08 01:23:09;;;;;;;11.18;5.25;;;;;;;;;;5052871;28;20029;-69
2021/04/08 01:25:54;;;;;;;9.27;4.78;;;;;;;;;;5051713;28;20037;-69
2021/04/08 01:28:26;;;;;;;10.40;4.93;;;;;;;;;;5052460;28;20194;-69
2021/04/08 01:30:54;;;;;;;8.35;4.82;;;;;;;;;;5053007;28;20021;-70
2021/04/08 01:33:34;;;;;;;8.98;4.53;;;;;;;;;;5052928;28;20068;-70
2021/04/08 01:36:02;;;;;;;9.27;4.93;;;;;;;;;;5051161;28;20435;-70
2021/04/08 01:38:33;;;;;;;8.95;4.63;;;;;;;;;;5051454;28;20106;-70
2021/04/08 01:41:01;;;;;;;8.02;4.25;;;;;;;;;;5052415;28;20025;-70
2021/04/08 01:43:29;;;;;;;9.32;4.50;;;;;;;;;;5052652;28;20035;-70
2021/04/08 01:45:57;;;;;;;9.75;4.53;;;;;;;;;;5052623;28;20021;-70
2021/04/08 01:48:23;;;;;;;8.98;4.68;;;;;;;;;;5052305;28;20095;-70
2021/04/08 01:50:53;;;;;;;7.32;3.83;;;;;;;;;;5052777;28;20043;-70
2021/04/08 01:53:20;;;;;;;9.00;4.60;;;;;;;;;;5052488;28;20104;-70
2021/04/08 01:55:49;;;;;;;7.70;4.22;;;;;;;;;;5052151;28;20108;-70
2021/04/08 01:58:16;;;;;;;8.30;4.78;;;;;;;;;;5052474;28;20535;-69
2021/04/08 02:00:44;;;;;;;9.55;4.85;;;;;;;;;;5052420;28;20545;-69
2021/04/08 02:03:11;;;;;;;8.27;4.40;;;;;;;;;;5052100;28;20491;-69
2021/04/08 02:05:37;;;;;;;9.10;4.47;;;;;;;;;;5052382;28;20029;-69
2021/04/08 02:08:05;;;;;;;10.32;4.75;;;;;;;;;;5052380;28;20035;-69
2021/04/08 02:10:34;;;;;;;9.68;4.32;;;;;;;;;;5052057;28;20017;-69
2021/04/08 02:13:01;;;;;;;10.85;4.60;;;;;;;;;;5050812;28;20049;-70
2021/04/08 02:15:27;;;;;;;8.80;4.70;;;;;;;;;;5050930;28;20029;-69
2021/04/08 02:17:55;;;;;;;9.10;4.50;;;;;;;;;;5051884;28;20021;-69
2021/04/08 02:20:23;;;;;;;8.00;4.65;;;;;;;;;;5052262;28;20029;-70
2021/04/08 02:22:52;;;;;;;10.30;4.88;;;;;;;;;;5052243;28;20028;-69
2021/04/08 02:25:19;;;;;;;8.93;4.20;;;;;;;;;;5051803;28;20053;-69
2021/04/08 02:27:45;;;;;;;10.45;4.57;;;;;;;;;;5052191;28;20104;-69
2021/04/08 02:30:13;;;;;;;9.27;4.68;;;;;;;;;;5051918;28;20095;-70
2021/04/08 02:32:40;;;;;;;9.95;3.95;;;;;;;;;;5052221;28;20027;-69
2021/04/08 02:35:11;;;;;;;7.70;4.43;;;;;;;;;;5052073;28;20039;-69
2021/04/08 02:37:37;;;;;;;8.77;4.28;;;;;;;;;;5051726;28;20013;-69
2021/04/08 02:40:05;;;;;;;9.43;4.85;;;;;;;;;;5052082;28;20033;-69
2021/04/08 02:42:31;;;;;;;12.00;4.88;;;;;;;;;;5052613;28;20021;-70
2021/04/08 02:44:58;;;;;;;6.88;4.28;;;;;;;;;;5052257;28;20053;-70
2021/04/08 02:47:24;;;;;;;10.73;5.47;;;;;;;;;;5051949;28;20100;-70
2021/04/08 02:49:50;;;;;;;8.20;4.60;;;;;;;;;;5052153;28;20486;-69
2021/04/08 02:52:18;;;;;;;9.18;4.60;;;;;;;;;;5051728;28;20025;-70
2021/04/08 02:55:02;;;;;;;9.27;5.15;;;;;;;;;;5051835;28;20061;-70
2021/04/08 02:57:32;;;;;;;8.85;4.75;;;;;;;;;;5051899;28;20109;-70
2021/04/08 03:00:05;;;;;;;8.10;5.15;;;;;;;;;;5052232;28;20053;-70
2021/04/08 03:02:33;;;;;;;12.75;5.22;;;;;;;;;;5050672;28;20036;-70
2021/04/08 03:04:59;;;;;;;8.60;4.30;;;;;;;;;;5051751;28;20021;-69
2021/04/08 03:07:33;;;;;;;11.18;5.63;;;;;;;;;;5051403;28;20031;-69
2021/04/08 03:10:02;;;;;;;9.27;4.63;;;;;;;;;;5050708;28;20098;-70
2021/04/08 03:12:29;;;;;;;9.02;5.28;;;;;;;;;;5051374;28;20466;-70
2021/04/08 03:14:57;;;;;;;11.98;4.85;;;;;;;;;;5051746;28;20039;-69
2021/04/08 03:17:29;;;;;;;10.52;4.82;;;;;;;;;;5052027;28;20405;-69
2021/04/08 03:19:57;;;;;;;10.67;4.97;;;;;;;;;;5050077;28;20056;-69
2021/04/08 03:22:24;;;;;;;9.35;4.65;;;;;;;;;;5054645;28;20017;-69
2021/04/08 03:24:51;;;;;;;9.15;4.57;;;;;;;;;;5055290;28;20108;-70
2021/04/08 03:27:18;;;;;;;8.65;4.82;;;;;;;;;;5053561;28;20021;-70
2021/04/08 03:29:44;;;;;;;7.50;4.68;;;;;;;;;;5055283;28;20082;-69
2021/04/08 03:32:11;;;;;;;9.45;4.15;;;;;;;;;;5055399;28;20025;-70
2021/04/08 03:34:38;;;;;;;12.65;4.38;;;;;;;;;;5054538;28;20052;-70
2021/04/08 03:37:04;;;;;;;6.97;4.10;;;;;;;;;;5055041;28;20025;-70
2021/04/08 03:39:31;;;;;;;12.43;4.45;;;;;;;;;;5055348;28;20377;-69
2021/04/08 03:41:58;;;;;;;11.00;4.60;;;;;;;;;;5054575;28;20021;-70
2021/04/08 03:44:24;;;;;;;10.02;4.75;;;;;;;;;;5054865;28;20064;-69
2021/04/08 03:46:55;;;;;;;8.40;4.53;;;;;;;;;;5053563;28;20529;-69
2021/04/08 03:49:22;;;;;;;8.05;4.38;;;;;;;;;;5054497;28;20033;-70
2021/04/08 03:51:48;;;;;;;8.85;4.47;;;;;;;;;;5055001;28;20017;-70
2021/04/08 03:54:15;;;;;;;9.95;4.25;;;;;;;;;;5053474;28;20102;-70
2021/04/08 03:56:46;;;;;;;8.13;4.07;;;;;;;;;;5054217;28;20024;-69
2021/04/08 03:59:13;;;;;;;11.18;4.75;;;;;;;;;;5054670;28;20056;-69
2021/04/08 04:01:39;;;;;;;9.38;4.82;;;;;;;;;;5054139;28;20025;-71
2021/04/08 04:04:06;;;;;;;9.18;4.85;;;;;;;;;;5054562;28;20048;-70
2021/04/08 04:06:35;;;;;;;11.85;5.53;;;;;;;;;;5054544;28;20053;-70
2021/04/08 04:09:01;;;;;;;7.63;4.30;;;;;;;;;;5054090;28;20028;-70
2021/04/08 04:11:28;;;;;;;12.85;5.15;;;;;;;;;;5054631;28;20021;-70
2021/04/08 04:13:54;;;;;;;9.90;5.28;;;;;;;;;;5052984;28;20501;-70
2021/04/08 04:16:21;;;;;;;12.82;5.45;;;;;;;;;;5053925;28;20482;-70
2021/04/08 04:18:48;;;;;;;10.90;5.80;;;;;;;;;;5054243;28;20028;-69
2021/04/08 04:21:14;;;;;;;15.60;5.70;;;;;;;;;;5054207;28;20032;-71
2021/04/08 04:23:40;;;;;;;10.00;5.38;;;;;;;;;;5052479;28;20548;-71
2021/04/08 04:26:06;;;;;;;9.73;5.30;;;;;;;;;;5052808;28;20033;-71
2021/04/08 04:28:32;;;;;;;13.30;5.45;;;;;;;;;;5052804;28;20369;-71
2021/04/08 04:30:58;;;;;;;21.95;8.73;;;;;;;;;;5053658;28;20085;-71
2021/04/08 04:33:25;;;;;;;10.35;6.15;;;;;;;;;;5052837;28;20037;-71
2021/04/08 04:35:53;;;;;;;19.25;10.02;;;;;;;;;;5054025;28;20095;-71
2021/04/08 04:38:19;;;;;;;22.80;11.23;;;;;;;;;;5053655;28;20025;-71
2021/04/08 04:40:45;;;;;;;16.77;8.43;;;;;;;;;;5053904;28;20029;-71
2021/04/08 04:43:11;;;;;;;9.80;5.15;;;;;;;;;;5053705;28;20013;-71
2021/04/08 04:45:37;;;;;;;14.57;6.13;;;;;;;;;;5053474;28;20477;-71
2021/04/08 04:48:04;;;;;;;9.68;4.93;;;;;;;;;;5053728;28;20025;-72
2021/04/08 04:50:30;;;;;;;10.65;5.55;;;;;;;;;;5053836;28;20048;-72
2021/04/08 04:52:56;;;;;;;12.77;6.63;;;;;;;;;;5052121;28;20094;-71
2021/04/08 04:55:22;;;;;;;11.27;5.68;;;;;;;;;;5053646;28;20524;-71
2021/04/08 04:57:48;;;;;;;13.27;6.82;;;;;;;;;;5051908;28;20021;-71
2021/04/08 05:00:15;;;;;;;15.70;7.03;;;;;;;;;;5053528;28;20024;-71
2021/04/08 05:02:41;;;;;;;13.68;7.85;;;;;;;;;;5052122;28;20474;-71
2021/04/08 05:05:07;;;;;;;14.85;6.70;;;;;;;;;;5051716;28;20029;-71
2021/04/08 05:07:33;;;;;;;12.00;5.40;;;;;;;;;;5053261;28;20074;-71
2021/04/08 05:10:00;;;;;;;10.63;6.63;;;;;;;;;;5053232;28;20096;-71
2021/04/08 05:12:26;;;;;;;13.32;5.90;;;;;;;;;;5053021;28;20025;-71
2021/04/08 05:14:52;;;;;;;13.57;7.45;;;;;;;;;;5053117;28;20061;-70
2021/04/08 05:17:18;;;;;;;15.88;7.60;;;;;;;;;;5053204;28;20404;-70
2021/04/08 05:19:44;;;;;;;16.42;8.30;;;;;;;;;;5052712;28;20033;-70
2021/04/08 05:22:11;;;;;;;15.25;8.52;;;;;;;;;;5053021;28;20516;-71
2021/04/08 05:24:37;;;;;;;15.55;8.48;;;;;;;;;;5052999;28;20481;-70
2021/04/08 05:27:03;;;;;;;23.70;8.73;;;;;;;;;;5052652;28;20021;-70
2021/04/08 05:29:29;;;;;;;15.02;8.35;;;;;;;;;;5052897;28;20101;-71
2021/04/08 05:31:56;;;;;;;11.77;7.20;;;;;;;;;;5051721;28;20021;-71
2021/04/08 05:34:22;;;;;;;12.82;7.30;;;;;;;;;;5051301;28;20108;-71
2021/04/08 05:36:48;;;;;;;14.32;7.80;;;;;;;;;;5052823;28;20485;-71
2021/04/08 05:39:14;;;;;;;14.70;8.77;;;;;;;;;;5052745;28;20138;-71
2021/04/08 05:41:40;;;;;;;14.65;7.65;;;;;;;;;;5051239;28;20017;-71
2021/04/08 05:44:06;;;;;;;13.52;8.52;;;;;;;;;;5050384;28;20029;-70
2021/04/08 05:46:33;;;;;;;15.07;8.38;;;;;;;;;;5050860;28;20062;-71
2021/04/08 05:48:59;;;;;;;14.05;7.75;;;;;;;;;;5050905;28;20062;-71
2021/04/08 05:51:25;;;;;;;15.43;7.60;;;;;;;;;;5052770;28;20608;-71
2021/04/08 05:53:51;;;;;;;15.50;8.02;;;;;;;;;;5052712;28;20066;-71
2021/04/08 05:56:18;;;;;;;14.25;7.20;;;;;;;;;;5052277;28;20075;-70
2021/04/08 05:58:44;;;;;;;11.23;7.38;;;;;;;;;;5052390;28;20092;-69
2021/04/08 06:01:10;;;;;;;17.58;8.57;;;;;;;;;;5051959;28;20100;-70
2021/04/08 06:03:36;;;;;;;15.27;9.07;;;;;;;;;;5050957;28;20515;-70
2021/04/08 06:06:03;;;;;;;12.23;7.15;;;;;;;;;;5052595;28;20025;-70
2021/04/08 06:08:29;;;;;;;15.48;7.45;;;;;;;;;;5047463;28;20017;-70
2021/04/08 06:10:55;;;;;;;13.45;6.90;;;;;;;;;;5050502;28;20021;-70
2021/04/08 06:13:22;;;;;;;15.48;8.25;;;;;;;;;;5048969;28;20045;-70
2021/04/08 06:15:48;;;;;;;14.15;9.23;;;;;;;;;;5050512;28;20035;-70
2021/04/08 06:18:14;;;;;;;15.32;8.07;;;;;;;;;;5050894;28;20021;-69
2021/04/08 06:20:40;;;;;;;14.18;8.25;;;;;;;;;;5050788;28;20104;-71
2021/04/08 06:23:07;;;;;;;13.68;7.80;;;;;;;;;;5051827;28;20481;-73
2021/04/08 06:25:33;;;;;;;16.58;9.55;;;;;;;;;;5050858;28;20025;-71
2021/04/08 06:28:00;;;;;;;15.77;7.93;;;;;;;;;;5051917;28;20096;-72
2021/04/08 06:30:26;;;;;;;13.90;8.63;;;;;;;;;;5050300;28;20109;-69
2021/04/08 06:32:53;;;;;;;15.30;8.13;;;;;;;;;;5050256;28;20363;-71
2021/04/08 06:35:19;;;;;;;15.32;8.02;;;;;;;;;;5050703;28;20143;-71
2021/04/08 06:37:46;;;;;;;14.00;8.52;;;;;;;;;;5049646;28;20040;-70
2021/04/08 06:40:12;;;;;;;15.43;9.18;;;;;;;;;;5050229;28;20367;-71
2021/04/08 06:42:41;;;;;;;13.40;7.40;;;;;;;;;;5050117;28;20017;-70
2021/04/08 06:45:07;;;;;;;16.73;7.30;;;;;;;;;;5049857;28;20481;-71
2021/04/08 06:47:38;;;;;;;14.93;7.65;;;;;;;;;;5051975;28;20032;-71
2021/04/08 06:50:06;;;;;;;24.63;12.88;;;;;;;;;;5051995;28;20020;-73
2021/04/08 06:52:32;;;;;;;22.38;9.77;;;;;;;;;;5051329;28;20025;-72
2021/04/08 06:54:58;;;;;;;19.95;10.35;;;;;;;;;;5051812;28;20040;-72
2021/04/08 06:57:24;;;;;;;16.38;8.27;;;;;;;;;;5054550;28;20024;-71
2021/04/08 06:59:51;;;;;;;15.93;8.35;;;;;;;;;;5055649;28;20402;-70
2021/04/08 07:02:18;;;;;;;11.15;7.47;;;;;;;;;;5055514;28;20025;-69
2021/04/08 07:04:44;;;;;;;12.20;7.30;;;;;;;;;;5053570;28;20385;-68
2021/04/08 07:07:12;;;;;;;11.25;7.35;;;;;;;;;;5055470;28;20032;-69
2021/04/08 07:09:38;;;;;;;14.77;9.25;;;;;;;;;;5055627;28;20045;-68
2021/04/08 07:12:04;;;;;;;16.73;9.35;;;;;;;;;;5055220;28;20075;-69
2021/04/08 07:14:31;;;;;;;16.80;7.70;;;;;;;;;;5055436;28;20501;-70
2021/04/08 07:16:57;;;;;;;16.65;8.60;;;;;;;;;;5055552;28;20040;-67
2021/04/08 07:19:23;;;;;;;12.63;6.18;;;;;;;;;;5055063;28;20036;-68
2021/04/08 07:21:49;;;;;;;13.23;6.45;;;;;;;;;;5055348;28;20373;-68
2021/04/08 07:24:17;;;;;;;16.63;8.50;;;;;;;;;;5055431;28;20100;-69
2021/04/08 07:26:50;;;;;;;15.23;8.65;;;;;;;;;;5054844;28;20029;-69
2021/04/08 07:29:17;;;;;;;14.25;8.32;;;;;;;;;;5053846;28;20086;-69
2021/04/08 07:31:43;;;;;;;11.38;6.50;;;;;;;;;;5053790;28;20025;-68
2021/04/08 07:34:10;;;;;;;13.40;7.63;;;;;;;;;;5053583;28;20032;-68
2021/04/08 07:36:40;;;;;;;12.20;7.13;;;;;;;;;;5055228;28;20221;-68
2021/04/08 07:39:18;;;;;;;13.77;7.47;;;;;;;;;;5055037;28;20175;-68
2021/04/08 07:41:45;;;;;;;15.15;7.22;;;;;;;;;;5054535;28;20033;-67
2021/04/08 07:44:12;;;;;;;13.68;7.45;;;;;;;;;;5054948;28;20025;-69
2021/04/08 07:46:43;;;;;;;11.75;6.60;;;;;;;;;;5054533;28;20080;-68
2021/04/08 07:49:31;;;;;;;12.90;6.18;;;;;;;;;;5054849;28;20078;-68
2021/04/08 07:52:17;;;;;;;13.73;6.75;;;;;;;;;;5054897;28;20500;-70
2021/04/08 07:54:57;;;;;;;12.80;6.78;;;;;;;;;;5054093;28;20032;-70
2021/04/08 07:57:23;;;;;;;16.25;7.43;;;;;;;;;;5054756;28;20428;-69
2021/04/08 07:59:50;;;;;;;15.20;7.88;;;;;;;;;;5054717;28;20021;-71
2021/04/08 08:02:16;;;;;;;13.38;7.15;;;;;;;;;;5054230;28;20033;-68
2021/04/08 08:04:43;;;;;;;12.40;6.07;;;;;;;;;;5054730;28;20339;-69
2021/04/08 08:07:26;;;;;;;14.43;7.68;;;;;;;;;;5054176;28;20036;-68
2021/04/08 08:09:52;;;;;;;12.00;6.70;;;;;;;;;;5047225;28;20355;-69
2021/04/08 08:12:18;;;;;;;15.38;7.53;;;;;;;;;;5043340;28;20026;-70
2021/04/08 08:14:44;;;;;;;12.85;6.25;;;;;;;;;;5043157;28;20049;-69
2021/04/08 08:17:13;;;;;;;12.75;5.97;;;;;;;;;;5043593;28;20125;-70
2021/04/08 08:19:42;;;;;;;12.20;6.20;;;;;;;;;;5051747;28;20071;-72
2021/04/08 08:22:09;;;;;;;10.68;5.85;;;;;;;;;;5052232;28;20021;-71
2021/04/08 08:24:35;;;;;;;13.05;6.47;;;;;;;;;;5048353;28;20021;-69
2021/04/08 08:27:01;;;;;;;13.98;7.75;;;;;;;;;;5041311;28;20021;-69
2021/04/08 08:29:29;;;;;;;12.48;6.28;;;;;;;;;;5038690;28;20029;-68
2021/04/08 08:31:58;;;;;;;11.55;6.25;;;;;;;;;;5043724;28;20024;-68
2021/04/08 08:34:25;;;;;;;12.20;6.00;;;;;;;;;;5038963;28;20060;-68
2021/04/08 08:36:59;;;;;;;11.27;5.07;;;;;;;;;;5030758;28;20021;-70
2021/04/08 08:39:29;;;;;;;10.40;5.38;;;;;;;;;;5032855;28;20025;-72
2021/04/08 08:41:56;;;;;;;10.38;5.50;;;;;;;;;;5032440;28;20017;-77
2021/04/08 08:44:23;;;;;;;8.32;4.57;;;;;;;;;;5033548;28;20022;-77
2021/04/08 08:47:09;;;;;;;12.40;5.68;;;;;;;;;;5032729;28;20061;-76
2021/04/08 08:49:37;;;;;;;15.55;4.18;;;;;;;;;;5028195;28;20041;-76
2021/04/08 08:52:03;;;;;;;8.50;5.00;;;;;;;;;;5031427;28;20025;-78
2021/04/08 08:54:32;;;;;;;11.30;5.10;;;;;;;;;;5046543;28;20044;-78
2021/04/08 08:56:59;;;;;;;9.55;5.13;;;;;;;;;;5052649;28;20096;-80
2021/04/08 08:59:26;;;;;;;13.25;6.57;;;;;;;;;;5037884;28;20563;-79
2021/04/08 09:01:53;;;;;;;10.95;5.68;;;;;;;;;;5033517;28;20466;-78
2021/04/08 09:04:19;;;;;;;14.77;5.28;;;;;;;;;;5032585;28;20076;-79
2021/04/08 09:06:46;;;;;;;7.55;4.50;;;;;;;;;;5033746;28;20473;-80
2021/04/08 09:09:15;;;;;;;11.75;5.55;;;;;;;;;;5033894;28;20025;-80
2021/04/08 09:11:42;;;;;;;10.82;5.30;;;;;;;;;;5034118;28;20072;-80
2021/04/08 09:14:11;;;;;;;8.65;4.13;;;;;;;;;;5035859;28;20049;-75
2021/04/08 09:16:46;;;;;;;11.93;5.10;;;;;;;;;;5047064;28;20025;-77
2021/04/08 09:19:13;;;;;;;9.13;5.00;;;;;;;;;;5051199;28;20103;-79
2021/04/08 09:21:47;;;;;;;10.05;4.95;;;;;;;;;;5050725;28;20017;-76
2021/04/08 09:24:24;;;;;;;9.63;4.93;;;;;;;;;;5050738;28;20397;-76
2021/04/08 09:26:56;;;;;;;9.88;5.43;;;;;;;;;;5051571;28;20296;-78
2021/04/08 09:29:35;;;;;;;10.33;5.73;;;;;;;;;;5052601;28;20031;-79
2021/04/08 09:32:24;;;;;;;9.75;4.70;;;;;;;;;;5052403;28;20025;-78
2021/04/08 09:35:09;;;;;;;10.80;5.57;;;;;;;;;;5051337;28;20145;-75
2021/04/08 09:37:47;;;;;;;8.75;4.80;;;;;;;;;;5051042;28;20025;-76
2021/04/08 09:40:46;;;;;;;8.90;4.85;;;;;;;;;;5067808;28;21081;-75
2021/04/08 09:45:09;;;;;;;9.10;5.88;;;;;;;;;;5068484;28;20384;-79
2021/04/08 09:48:09;;;;;;;11.23;6.63;;;;;;;;;;5067650;28;20387;-75
2021/04/08 09:50:42;;;;;;;9.77;4.97;;;;;;;;;;5069316;28;20029;-74
2021/04/08 09:53:08;;;;;;;15.97;7.27;;;;;;;;;;5068149;28;20086;-74
2021/04/08 09:55:34;;;;;;;11.45;6.72;;;;;;;;;;5069717;28;20486;-73
2021/04/08 09:58:02;;;;;;;11.25;6.20;;;;;;;;;;5069610;28;20036;-74
2021/04/08 10:02:08;;;;;;;10.57;5.65;;;;;;;;;;5069225;28;20383;-72
2021/04/08 10:06:44;;;;;;;8.73;5.32;;;;;;;;;;5069681;28;20745;-73
2021/04/08 10:09:12;;;;;;;12.95;6.45;;;;;;;;;;5068282;28;20055;-73
2021/04/08 10:11:47;;;;;;;13.82;7.90;;;;;;;;;;5069808;28;20429;-74
2021/04/08 10:14:16;;;;;;;9.90;5.95;;;;;;;;;;5069625;28;20079;-75
2021/04/08 10:16:42;;;;;;;12.90;5.50;;;;;;;;;;5069425;28;20114;-74
2021/04/08 10:19:08;;;;;;;13.60;5.97;;;;;;;;;;5069707;28;20021;-74
2021/04/08 10:22:24;;;;;;;10.50;5.18;;;;;;;;;;5110041;27;20438;-71
2021/04/08 10:24:51;;;;;;;9.23;5.28;;;;;;;;;;5110255;28;20043;-74
2021/04/08 10:28:59;;;;;;;11.15;5.75;;;;;;;;;;5110052;27;20442;-74
2021/04/08 10:31:28;;;;;;;11.88;5.40;;;;;;;;;;5110403;28;20433;-73
2021/04/08 10:33:56;;;;;;;11.95;4.18;;;;;;;;;;5110338;28;20031;-72
2021/04/08 10:36:30;;;;;;;7.85;3.58;;;;;;;;;;5109827;28;20024;-71
2021/04/08 10:39:16;;;;;;;8.75;4.05;;;;;;;;;;5110156;28;20024;-73
2021/04/08 10:41:57;;;;;;;9.77;5.50;;;;;;;;;;5110024;28;20540;-72
2021/04/08 10:44:25;;;;;;;11.52;5.50;;;;;;;;;;5105615;28;20027;-73
2021/04/08 10:46:52;;;;;;;11.95;7.05;;;;;;;;;;5108991;28;20361;-71
2021/04/08 10:49:19;;;;;;;10.07;4.30;;;;;;;;;;5109827;28;20024;-75
2021/04/08 10:53:58;;;;;;;10.55;5.38;;;;;;;;;;5109956;27;20385;-73
2021/04/08 10:56:24;;;;;;;9.35;4.95;;;;;;;;;;5109855;28;20379;-73
2021/04/08 10:58:51;;;;;;;12.38;6.25;;;;;;;;;;5109675;28;20111;-71
2021/04/08 11:01:28;;;;;;;13.88;5.75;;;;;;;;;;5109864;28;20026;-72
2021/04/08 11:06:58;;;;;;;12.70;5.95;;;;;;;;;;5107792;28;20102;-71
2021/04/08 11:12:14;;;;;;;7.75;3.92;;;;;;;;;;5063404;28;20437;-68
2021/04/08 11:18:14;;;;;;;6.90;3.42;;;;;;;;;;5068196;28;20388;-70
2021/04/08 11:20:42;;;;;;;10.57;4.95;;;;;;;;;;5067343;28;20029;-69
2021/04/08 11:23:08;;;;;;;9.35;4.78;;;;;;;;;;5069479;28;20078;-70
2021/04/08 11:25:36;;;;;;;11.48;4.82;;;;;;;;;;5068920;28;20025;-70
2021/04/08 11:28:53;;;;;;;10.57;6.20;;;;;;;;;;5069041;28;20672;-71
2021/04/08 11:33:24;;;;;;;10.90;5.78;;;;;;;;;;5068691;27;20391;-71
2021/04/08 11:35:50;;;;;;;8.27;4.60;;;;;;;;;;5067157;28;20086;-71
2021/04/08 11:38:20;;;;;;;8.43;4.28;;;;;;;;;;5068351;28;20485;-70
2021/04/08 11:41:01;;;;;;;8.55;4.55;;;;;;;;;;5067950;28;20067;-70
2021/04/08 11:43:29;;;;;;;11.32;6.30;;;;;;;;;;5067631;28;20047;-70
2021/04/08 11:45:59;;;;;;;8.30;4.93;;;;;;;;;;5068854;28;20418;-71
2021/04/08 11:48:27;;;;;;;7.15;3.25;;;;;;;;;;5069701;28;20108;-71
2021/04/08 11:51:02;;;;;;;8.73;3.85;;;;;;;;;;5068648;28;20544;-72
2021/04/08 11:53:36;;;;;;;6.10;2.88;;;;;;;;;;5067553;28;20029;-72
2021/04/08 11:56:40;;;;;;;9.63;4.50;;;;;;;;;;5110117;27;20430;-72
2021/04/08 12:04:50;;;;;;;8.52;4.10;;;;;;;;;;5069501;28;20748;-72
2021/04/08 12:07:19;;;;;;;12.80;6.03;;;;;;;;;;5069004;28;20024;-71
2021/04/08 12:11:20;;;;;;;7.43;3.83;;;;;;;;;;5110020;27;20606;-71
2021/04/08 12:14:05;;;;;;;9.45;5.20;;;;;;;;;;5110235;28;20031;-71
2021/04/08 12:16:32;;;;;;;11.13;5.93;;;;;;;;;;5110254;28;20026;-72
2021/04/08 12:18:59;;;;;;;10.88;5.82;;;;;;;;;;5110202;28;20058;-71
2021/04/08 12:21:26;;;;;;;9.77;4.80;;;;;;;;;;5110032;28;20027;-71
2021/04/08 12:23:53;;;;;;;7.60;3.72;;;;;;;;;;5107694;28;20028;-70
2021/04/08 12:26:36;;;;;;;9.85;4.72;;;;;;;;;;5110135;28;20093;-72
2021/04/08 12:29:02;;;;;;;6.45;3.20;;;;;;;;;;5109486;28;20020;-70
2021/04/08 12:31:28;;;;;;;8.48;3.50;;;;;;;;;;5108085;28;20055;-72
2021/04/08 12:33:54;;;;;;;9.50;4.82;;;;;;;;;;5109530;28;20074;-72
2021/04/08 12:36:21;;;;;;;10.98;5.75;;;;;;;;;;5107990;28;20038;-71
2021/04/08 12:38:47;;;;;;;8.18;3.78;;;;;;;;;;5108197;28;20024;-68
2021/04/08 12:41:13;;;;;;;9.27;5.75;;;;;;;;;;5109556;28;20050;-71
2021/04/08 12:43:40;;;;;;;6.80;3.72;;;;;;;;;;5107990;28;20024;-70
2021/04/08 12:46:06;;;;;;;5.10;2.78;;;;;;;;;;5109754;28;20019;-70
2021/04/08 12:48:32;;;;;;;7.35;3.78;;;;;;;;;;5109912;28;20020;-71
2021/04/08 12:52:54;;;;;;;19.90;10.80;;;;;;;;;;5130475;27;20315;-70
2021/04/08 12:55:20;;;;;;;10.70;4.60;;;;;;;;;;5110406;28;20052;-71
2021/04/08 12:57:47;;;;;;;11.02;5.03;;;;;;;;;;5107983;28;20024;-71
2021/04/08 13:00:13;;;;;;;8.88;3.60;;;;;;;;;;5091003;28;20024;-71
2021/04/08 13:02:39;;;;;;;7.63;3.47;;;;;;;;;;5109914;28;20067;-71
2021/04/08 13:05:06;;;;;;;8.85;4.07;;;;;;;;;;5107658;28;20024;-71
2021/04/08 13:07:33;;;;;;;7.72;4.38;;;;;;;;;;5108378;28;20355;-71
2021/04/08 13:09:59;;;;;;;9.13;4.00;;;;;;;;;;5108682;28;20043;-71
2021/04/08 13:13:20;;;;;;;12.05;6.43;;;;;;;;;;5068500;28;20441;-71
2021/04/08 13:15:46;;;;;;;11.07;6.28;;;;;;;;;;5069104;28;20029;-71
2021/04/08 13:18:12;;;;;;;11.07;4.53;;;;;;;;;;5068910;28;20025;-70
2021/04/08 13:20:39;;;;;;;8.13;3.80;;;;;;;;;;5069540;28;20025;-70
2021/04/08 13:23:05;;;;;;;7.28;2.97;;;;;;;;;;5068290;28;20027;-71
2021/04/08 13:25:32;;;;;;;10.60;5.72;;;;;;;;;;5069186;28;20028;-71
2021/04/08 13:28:45;;;;;;;10.73;5.80;;;;;;;;;;5069927;28;20356;-71
2021/04/08 13:31:12;;;;;;;9.30;4.20;;;;;;;;;;5069403;28;20478;-72
2021/04/08 13:33:38;;;;;;;6.97;3.45;;;;;;;;;;5068311;28;20033;-72
2021/04/08 13:36:04;;;;;;;9.25;4.00;;;;;;;;;;5069588;28;20047;-71
2021/04/08 13:39:31;;;;;;;8.82;4.65;;;;;;;;;;5110045;27;20389;-71
2021/04/08 13:41:57;;;;;;;13.05;5.60;;;;;;;;;;5110336;28;20048;-70
2021/04/08 13:44:23;;;;;;;8.07;3.33;;;;;;;;;;5110341;28;20031;-71
2021/04/08 13:46:50;;;;;;;5.32;2.90;;;;;;;;;;5110117;28;20024;-73
2021/04/08 13:50:59;;;;;;;8.63;3.15;;;;;;;;;;5069801;28;20391;-71
2021/04/08 13:53:25;;;;;;;8.38;4.18;;;;;;;;;;5069371;28;20108;-71
2021/04/08 13:55:51;;;;;;;11.20;6.55;;;;;;;;;;5068303;28;20048;-70
2021/04/08 13:58:17;;;;;;;9.25;5.03;;;;;;;;;;5069588;28;20485;-70
2021/04/08 14:00:43;;;;;;;10.00;4.68;;;;;;;;;;5067919;28;20028;-68
2021/04/08 14:03:10;;;;;;;9.52;5.10;;;;;;;;;;5068233;28;20086;-70
2021/04/08 14:05:36;;;;;;;6.47;3.45;;;;;;;;;;5069553;28;20017;-70
2021/04/08 14:08:03;;;;;;;11.35;3.78;;;;;;;;;;5069375;28;20020;-71
2021/04/08 14:10:29;;;;;;;8.75;4.15;;;;;;;;;;5069537;28;20512;-71
2021/04/08 14:12:56;;;;;;;6.15;3.58;;;;;;;;;;5069453;28;20033;-71
2021/04/08 14:15:22;;;;;;;8.18;4.57;;;;;;;;;;5068997;28;20032;-70
2021/04/08 14:17:48;;;;;;;5.93;3.08;;;;;;;;;;5069546;28;20389;-70
2021/04/08 14:20:14;;;;;;;18.40;10.73;;;;;;;;;;5068566;28;20096;-71
2021/04/08 14:22:41;;;;;;;10.90;5.18;;;;;;;;;;5068454;28;20496;-70
2021/04/08 14:25:08;;;;;;;8.40;3.40;;;;;;;;;;5068232;28;20527;-71
2021/04/08 14:27:34;;;;;;;6.53;3.08;;;;;;;;;;5067904;28;20031;-70
2021/04/08 14:30:00;;;;;;;6.20;3.42;;;;;;;;;;5068598;28;20066;-70
2021/04/08 14:32:27;;;;;;;8.80;4.47;;;;;;;;;;5069025;28;20021;-73
2021/04/08 14:35:45;;;;;;;18.30;8.43;;;;;;;;;;5068767;28;20387;-70
2021/04/08 14:38:12;;;;;;;11.10;5.30;;;;;;;;;;5069814;28;20029;-71
2021/04/08 14:40:39;;;;;;;9.55;4.30;;;;;;;;;;5069796;28;20035;-70
2021/04/08 14:43:05;;;;;;;7.95;3.20;;;;;;;;;;5067528;28;20435;-70
2021/04/08 14:45:32;;;;;;;10.55;6.22;;;;;;;;;;5069789;28;20027;-70
2021/04/08 14:47:59;;;;;;;10.23;5.57;;;;;;;;;;5069704;28;20024;-70
2021/04/08 14:50:26;;;;;;;12.32;5.47;;;;;;;;;;5069128;28;20025;-70
2021/04/08 14:52:52;;;;;;;10.25;5.85;;;;;;;;;;5069516;28;20074;-72
2021/04/08 14:55:18;;;;;;;10.90;4.68;;;;;;;;;;5068047;28;20446;-72
2021/04/08 14:59:28;;;;;;;13.85;6.70;;;;;;;;;;5110335;27;20381;-71
2021/04/08 15:01:55;;;;;;;11.57;5.15;;;;;;;;;;5110471;28;20416;-71
2021/04/08 15:04:21;;;;;;;7.10;3.78;;;;;;;;;;5110033;28;20023;-71
2021/04/08 15:06:47;;;;;;;10.95;4.55;;;;;;;;;;5110360;28;20369;-70
2021/04/08 15:09:13;;;;;;;11.77;5.68;;;;;;;;;;5110878;28;20552;-70
2021/04/08 15:11:39;;;;;;;15.38;5.18;;;;;;;;;;5108386;28;20020;-72
2021/04/08 15:14:06;;;;;;;10.52;5.05;;;;;;;;;;5110116;28;20031;-70
2021/04/08 15:16:32;;;;;;;9.70;5.18;;;;;;;;;;5109974;28;20111;-70
2021/04/08 15:18:58;;;;;;;11.05;6.07;;;;;;;;;;5109546;28;20047;-70
2021/04/08 15:21:25;;;;;;;10.13;5.15;;;;;;;;;;5109965;28;20020;-70